createdAt,value
2019-01-20T00:02:46.545Z,69.70
2019-01-20T00:07:49.048Z,69.97
2019-01-20T00:12:51.589Z,69.97
2019-01-20T00:17:54.745Z,70.05
2019-01-20T00:22:57.144Z,70.19
2019-01-20T00:28:00.255Z,70.12
2019-01-20T00:33:02.640Z,70.24
2019-01-20T00:38:04.847Z,70.38
2019-01-20T00:43:07.541Z,70.46
2019-01-20T00:48:09.835Z,70.57
2019-01-20T00:53:12.504Z,70.52
2019-01-20T00:58:15.369Z,70.65
2019-01-20T01:03:18.593Z,70.76
2019-01-20T01:08:21.341Z,70.55
2019-01-20T01:13:25.256Z,70.85
2019-01-20T01:18:27.594Z,70.81
2019-01-20T01:23:30.381Z,70.94
2019-01-20T01:28:33.006Z,70.98
2019-01-20T01:33:35.554Z,71.05
2019-01-20T01:38:37.851Z,71.19
2019-01-20T01:43:40.982Z,71.16
2019-01-20T01:48:43.584Z,71.07
2019-01-20T01:53:46.072Z,71.18
2019-01-20T01:58:48.666Z,71.37
2019-01-20T02:03:51.521Z,71.36
2019-01-20T02:08:54.067Z,71.45
2019-01-20T02:13:56.628Z,71.18
2019-01-20T02:18:59.187Z,71.45
2019-01-20T02:24:01.948Z,71.36
2019-01-20T02:29:04.604Z,71.44
2019-01-20T02:34:07.287Z,71.44
2019-01-20T02:39:09.804Z,71.51
2019-01-20T02:44:12.192Z,71.47
2019-01-20T02:49:15.071Z,71.47
2019-01-20T02:54:18.032Z,71.79
2019-01-20T02:59:20.593Z,71.76
2019-01-20T03:04:22.912Z,71.81
2019-01-20T03:09:25.666Z,71.85
2019-01-20T03:14:27.926Z,71.94
2019-01-20T03:19:30.834Z,71.86
2019-01-20T03:24:33.056Z,71.91
2019-01-20T03:29:35.325Z,71.84
2019-01-20T03:34:37.627Z,71.93
2019-01-20T03:39:39.875Z,72.03
2019-01-20T03:44:42.225Z,72.05
2019-01-20T03:49:44.604Z,72.09
2019-01-20T03:54:46.943Z,72.00
2019-01-20T03:59:49.390Z,72.05
2019-01-20T04:04:52.066Z,72.06
2019-01-20T04:09:54.978Z,72.04
2019-01-20T04:14:57.479Z,71.92
2019-01-20T04:20:00.370Z,72.02
2019-01-20T04:25:04.925Z,72.22
2019-01-20T04:30:10.673Z,72.29
2019-01-20T04:35:13.448Z,72.20
2019-01-20T04:40:18.701Z,72.32
2019-01-20T04:45:21.300Z,72.24
2019-01-20T04:50:24.473Z,72.22
2019-01-20T04:55:27.141Z,72.00
2019-01-20T05:00:30.209Z,72.16
2019-01-20T05:05:33.118Z,72.37
2019-01-20T05:10:36.026Z,72.28
2019-01-20T05:15:38.267Z,72.15
2019-01-20T05:20:41.312Z,72.35
2019-01-20T05:25:44.304Z,72.20
2019-01-20T05:30:46.524Z,72.25
2019-01-20T05:35:48.859Z,72.18
2019-01-20T05:40:51.625Z,72.23
2019-01-20T05:45:54.389Z,72.29
2019-01-20T05:50:56.727Z,72.24
2019-01-20T05:55:59.878Z,72.35
2019-01-20T06:01:02.658Z,72.34
2019-01-20T06:06:05.000Z,72.20
2019-01-20T06:11:08.029Z,72.33
2019-01-20T06:16:10.548Z,72.48
2019-01-20T06:21:12.861Z,72.52
2019-01-20T06:26:15.115Z,72.37
2019-01-20T06:31:17.810Z,72.41
2019-01-20T06:36:20.678Z,72.33
2019-01-20T06:41:23.026Z,72.25
2019-01-20T06:46:25.296Z,72.28
2019-01-20T06:51:27.500Z,72.41
2019-01-20T06:56:30.318Z,72.60
2019-01-20T07:01:32.585Z,72.54
2019-01-20T07:06:35.007Z,72.40
2019-01-20T07:11:38.987Z,72.25
2019-01-20T07:16:41.560Z,72.13
2019-01-20T07:21:43.908Z,72.11
2019-01-20T07:26:46.388Z,71.96
2019-01-20T07:31:48.711Z,72.23
2019-01-20T07:36:51.617Z,72.13
2019-01-20T07:41:54.721Z,71.97
2019-01-20T07:46:57.380Z,71.90
2019-01-20T07:51:59.600Z,71.98
2019-01-20T07:57:01.833Z,71.91
2019-01-20T08:02:06.085Z,72.01
2019-01-20T08:07:08.281Z,71.91
2019-01-20T08:12:10.942Z,71.76
2019-01-20T08:17:13.537Z,71.49
2019-01-20T08:22:16.272Z,71.33
2019-01-20T08:27:19.384Z,71.09
2019-01-20T08:32:21.691Z,70.88
2019-01-20T08:37:28.756Z,70.88
2019-01-20T08:42:28.689Z,70.73
2019-01-20T08:47:39.314Z,70.52
2019-01-20T08:52:41.776Z,70.19
2019-01-20T08:57:47.224Z,70.06
2019-01-20T09:02:49.576Z,69.85
2019-01-20T09:07:52.647Z,69.29
2019-01-20T09:12:57.370Z,68.78
2019-01-20T09:18:00.011Z,67.86
2019-01-20T09:23:02.650Z,67.59
2019-01-20T09:28:05.310Z,67.35
2019-01-20T09:33:07.862Z,65.99
2019-01-20T09:38:10.180Z,65.11
2019-01-20T09:43:13.492Z,63.82
2019-01-20T09:48:15.935Z,62.80
2019-01-20T09:53:18.924Z,62.05
2019-01-20T09:58:21.656Z,60.84
2019-01-20T10:03:24.683Z,60.60
2019-01-20T10:08:27.791Z,59.52
2019-01-20T10:13:30.534Z,58.63
2019-01-20T10:18:33.370Z,56.67
2019-01-20T10:23:36.233Z,55.86
2019-01-20T10:28:39.166Z,55.41
2019-01-20T10:33:41.746Z,54.51
2019-01-20T10:38:44.270Z,53.93
2019-01-20T10:43:47.499Z,53.03
2019-01-20T10:48:50.438Z,52.26
2019-01-20T10:53:53.113Z,51.33
2019-01-20T10:58:55.592Z,50.40
2019-01-20T11:03:58.027Z,50.04
2019-01-20T11:09:00.373Z,49.63
2019-01-20T11:14:09.443Z,50.77
2019-01-20T11:19:07.479Z,51.57
2019-01-20T11:24:11.370Z,52.13
2019-01-20T11:29:13.606Z,52.72
2019-01-20T11:34:16.080Z,53.22
2019-01-20T11:39:18.501Z,53.68
2019-01-20T11:44:21.160Z,54.15
2019-01-20T11:49:25.186Z,54.89
2019-01-20T11:54:27.613Z,55.40
2019-01-20T11:59:30.764Z,56.03
2019-01-20T12:04:33.434Z,56.11
2019-01-20T12:09:36.191Z,56.08
2019-01-20T12:14:38.447Z,56.59
2019-01-20T12:19:41.962Z,56.73
2019-01-20T12:24:44.260Z,57.02
2019-01-20T12:29:51.841Z,57.09
2019-01-20T12:34:51.145Z,56.59
2019-01-20T12:39:54.226Z,55.75
2019-01-20T12:44:57.028Z,55.52
2019-01-20T12:49:59.379Z,54.77
2019-01-20T12:55:02.237Z,54.43
2019-01-20T13:00:06.239Z,54.33
2019-01-20T13:05:09.490Z,54.37
2019-01-20T13:10:14.628Z,54.08
2019-01-20T13:15:18.940Z,54.10
2019-01-20T13:20:25.822Z,54.48
2019-01-20T13:25:29.892Z,54.67
2019-01-20T13:30:32.670Z,54.52
2019-01-20T13:35:35.255Z,54.18
2019-01-20T13:40:51.371Z,54.13
2019-01-20T13:45:53.676Z,54.07
2019-01-20T13:50:55.914Z,53.90
2019-01-20T13:56:01.239Z,53.91
2019-01-20T14:01:04.204Z,54.02
2019-01-20T14:06:06.610Z,54.17
2019-01-20T14:11:09.393Z,53.94
2019-01-20T14:16:11.716Z,54.13
2019-01-20T14:21:14.628Z,54.31
2019-01-20T14:26:17.190Z,54.51
2019-01-20T14:31:20.077Z,54.82
2019-01-20T14:36:22.634Z,55.09
2019-01-20T14:41:25.257Z,55.15
2019-01-20T14:46:27.604Z,55.80
2019-01-20T14:51:30.312Z,56.41
2019-01-20T14:56:32.909Z,56.78
2019-01-20T15:01:35.470Z,57.57
2019-01-20T15:06:38.071Z,57.91
2019-01-20T15:11:40.633Z,58.23
2019-01-20T15:16:43.338Z,58.58
2019-01-20T15:21:45.889Z,58.98
2019-01-20T15:26:48.802Z,58.89
2019-01-20T15:31:51.301Z,59.23
2019-01-20T15:36:55.363Z,59.47
2019-01-20T15:41:58.046Z,59.76
2019-01-20T15:47:00.567Z,59.88
2019-01-20T15:52:02.954Z,60.25
2019-01-20T15:57:05.296Z,60.58
2019-01-20T16:02:08.813Z,60.58
2019-01-20T16:07:11.367Z,60.73
2019-01-20T16:12:13.670Z,60.98
2019-01-20T16:17:16.059Z,60.94
2019-01-20T16:22:19.687Z,61.19
2019-01-20T16:27:22.412Z,61.33
2019-01-20T16:32:24.656Z,61.39
2019-01-20T16:37:27.008Z,61.80
2019-01-20T16:42:29.528Z,62.10
2019-01-20T16:47:32.270Z,62.27
2019-01-20T16:52:34.828Z,62.32
2019-01-20T16:57:37.481Z,62.28
2019-01-20T17:02:43.098Z,62.45
2019-01-20T17:07:46.880Z,62.37
2019-01-20T17:12:49.649Z,62.57
2019-01-20T17:17:52.450Z,62.78
2019-01-20T17:22:56.958Z,62.96
2019-01-20T17:28:24.416Z,63.01
2019-01-20T17:33:27.431Z,63.25
2019-01-20T17:38:30.271Z,63.53
2019-01-20T17:43:32.713Z,63.48
2019-01-20T17:48:35.351Z,63.66
2019-01-20T17:53:37.965Z,63.74
2019-01-20T17:58:40.167Z,64.08
2019-01-20T18:03:43.150Z,64.01
2019-01-20T18:08:45.606Z,64.18
2019-01-20T18:13:47.884Z,64.40
2019-01-20T18:18:50.164Z,64.41
2019-01-20T18:23:52.894Z,64.32
2019-01-20T18:28:55.243Z,64.48
2019-01-20T18:33:58.663Z,65.09
2019-01-20T18:39:01.062Z,65.43
2019-01-20T18:44:05.033Z,65.71
2019-01-20T18:49:07.594Z,65.91
2019-01-20T18:54:09.955Z,65.75
2019-01-20T18:59:12.195Z,65.51
2019-01-20T19:04:14.953Z,65.92
2019-01-20T19:09:17.690Z,66.18
2019-01-20T19:14:19.932Z,66.37
2019-01-20T19:19:22.217Z,66.29
2019-01-20T19:24:25.324Z,66.55
2019-01-20T19:29:27.854Z,66.22
2019-01-20T19:34:30.139Z,66.81
2019-01-20T19:39:33.025Z,66.93
2019-01-20T19:44:38.667Z,66.83
2019-01-20T19:49:41.475Z,66.96
2019-01-20T19:54:44.141Z,66.89
2019-01-20T19:59:47.032Z,67.01
2019-01-20T20:04:49.634Z,66.58
2019-01-20T20:09:51.914Z,66.73
2019-01-20T20:14:54.311Z,66.88
2019-01-20T20:19:59.152Z,66.90
2019-01-20T20:25:01.791Z,67.44
2019-01-20T20:30:09.915Z,67.71
2019-01-20T20:35:12.866Z,67.90
2019-01-20T20:40:17.265Z,67.84
2019-01-20T20:45:21.456Z,67.82
2019-01-20T20:50:23.759Z,67.80
2019-01-20T20:55:26.183Z,67.73
2019-01-20T21:00:41.832Z,67.74
2019-01-20T21:05:44.594Z,67.71
2019-01-20T21:10:47.107Z,67.85
2019-01-20T21:15:50.929Z,67.69
2019-01-20T21:20:54.468Z,67.47
2019-01-20T21:25:57.545Z,67.60
2019-01-20T21:30:59.899Z,67.56
2019-01-20T21:36:02.575Z,67.66
2019-01-20T21:41:05.353Z,67.64
2019-01-20T21:46:09.205Z,67.82
2019-01-20T21:51:11.957Z,67.90
2019-01-20T21:56:14.836Z,67.79
2019-01-20T22:01:17.606Z,67.71
2019-01-20T22:06:20.274Z,68.02
2019-01-20T22:11:22.739Z,68.08
2019-01-20T22:16:25.228Z,68.13
2019-01-20T22:21:27.926Z,67.90
2019-01-20T22:26:30.280Z,68.04
2019-01-20T22:31:33.368Z,68.22
2019-01-20T22:36:36.100Z,68.01
2019-01-20T22:41:39.439Z,68.22
2019-01-20T22:46:42.237Z,68.24
2019-01-20T22:51:45.434Z,68.14
2019-01-20T22:56:48.464Z,68.26
2019-01-20T23:01:51.543Z,68.19
2019-01-20T23:06:55.079Z,68.17
2019-01-20T23:11:58.753Z,67.96
2019-01-20T23:17:07.712Z,67.55
2019-01-20T23:22:05.379Z,68.10
2019-01-20T23:27:07.974Z,68.30
2019-01-20T23:32:10.210Z,68.44
2019-01-20T23:37:12.978Z,68.25
2019-01-20T23:42:16.102Z,68.20
2019-01-20T23:47:19.310Z,68.99
2019-01-20T23:52:21.902Z,69.25
2019-01-20T23:57:24.692Z,69.13
